createdAt,value
2022-11-21T07:35:40.005Z,75.88
2022-11-21T07:40:43.772Z,75.05
2022-11-21T07:45:47.678Z,84.13
2022-11-21T07:50:52.735Z,80.38
2022-11-21T08:01:06.251Z,79.72
2022-11-21T08:06:14.426Z,77.25
2022-11-21T08:11:18.128Z,77.70
2022-11-21T08:16:27.899Z,72.57
2022-11-21T08:21:32.982Z,73.05
2022-11-21T08:31:41.013Z,76.57
2022-11-21T08:36:49.000Z,80.95
2022-11-21T08:42:04.708Z,78.80
2022-11-21T08:47:08.790Z,82.22
2022-11-21T08:52:17.477Z,71.13
2022-11-21T08:57:24.218Z,66.65
2022-11-21T09:02:28.068Z,67.10
2022-11-21T09:07:33.269Z,68.50
2022-11-21T09:12:37.182Z,73.65
2022-11-21T09:17:58.386Z,53.42
2022-11-21T09:23:08.179Z,58.13
2022-11-21T09:28:15.216Z,53.35
2022-11-21T09:33:19.005Z,61.33
2022-11-21T09:38:24.547Z,49.00
2022-11-21T09:43:39.907Z,44.83
2022-11-21T09:48:49.697Z,42.83
2022-11-21T09:53:59.824Z,41.58
2022-11-21T09:59:16.882Z,37.28
2022-11-21T10:04:20.763Z,39.55
2022-11-21T10:09:36.864Z,47.45
2022-11-21T10:14:53.582Z,31.60
2022-11-21T10:20:27.401Z,35.20
2022-11-21T10:25:39.551Z,35.03
2022-11-21T10:30:45.903Z,31.00
2022-11-21T10:35:54.570Z,33.97
2022-11-21T10:41:07.152Z,34.05
2022-11-21T10:46:11.027Z,34.35
2022-11-21T10:51:31.305Z,37.88
2022-11-21T10:56:38.311Z,35.28
2022-11-21T11:01:55.080Z,34.17
2022-11-21T11:07:00.586Z,36.75
2022-11-21T11:12:47.011Z,32.78
2022-11-21T11:17:54.334Z,36.63
2022-11-21T11:22:58.076Z,30.77
2022-11-21T11:28:09.274Z,35.90
2022-11-21T11:33:35.708Z,33.20
2022-11-21T11:38:45.192Z,36.22
2022-11-21T11:44:18.174Z,31.42
2022-11-21T11:49:30.691Z,38.33
2022-11-21T11:54:51.462Z,28.38
2022-11-21T12:00:06.110Z,29.00
2022-11-21T12:05:22.388Z,29.30
2022-11-21T12:10:32.432Z,31.40
2022-11-21T12:15:51.362Z,33.13
2022-11-21T12:21:02.401Z,28.38
2022-11-21T12:26:29.983Z,26.52
2022-11-21T12:31:45.472Z,29.58
2022-11-21T12:36:56.743Z,28.27
2022-11-21T12:42:28.751Z,30.23
2022-11-21T12:48:11.795Z,28.17
2022-11-21T12:53:44.850Z,32.63
2022-11-21T12:58:56.929Z,30.40
2022-11-21T13:04:05.246Z,31.20
2022-11-21T13:09:14.211Z,33.55
2022-11-21T13:14:26.352Z,31.80
2022-11-21T13:19:38.999Z,30.70
2022-11-21T13:24:59.956Z,30.52
2022-11-21T13:30:21.941Z,30.98
2022-11-21T13:36:05.502Z,30.10
2022-11-21T13:41:30.441Z,27.95
2022-11-21T13:47:00.189Z,32.05
2022-11-21T13:52:13.576Z,32.72
2022-11-21T13:57:42.035Z,30.33
2022-11-21T14:03:20.333Z,31.58
2022-11-21T14:08:26.920Z,33.65
2022-11-21T14:13:39.322Z,34.75
2022-11-21T14:18:51.881Z,39.72
2022-11-21T14:24:06.118Z,42.47
2022-11-21T14:30:02.095Z,45.90
2022-11-21T14:48:33.804Z,39.13
2022-11-21T14:53:44.774Z,36.85
2022-11-21T14:58:49.331Z,35.47
2022-11-21T15:03:57.229Z,33.80
2022-11-21T15:10:24.795Z,33.50
2022-11-21T15:14:32.047Z,37.47
2022-11-21T15:19:35.890Z,29.70
2022-11-21T15:24:43.234Z,35.97
2022-11-21T15:29:47.095Z,36.50
2022-11-21T15:34:51.183Z,32.65
2022-11-21T15:39:56.560Z,39.97
2022-11-21T15:50:08.932Z,33.05
2022-11-21T15:55:20.954Z,37.67
2022-11-21T16:00:25.417Z,39.80
2022-11-21T16:05:29.657Z,32.58
2022-11-21T16:10:36.113Z,70.15
2022-11-21T16:15:41.264Z,51.88
2022-11-21T16:25:55.120Z,43.40
2022-11-21T16:30:59.321Z,44.42
2022-11-21T16:36:03.117Z,42.05
2022-11-21T16:41:08.542Z,44.60
2022-11-21T16:46:13.183Z,45.78
2022-11-21T16:51:19.138Z,54.78
2022-11-21T16:56:24.764Z,52.00
2022-11-21T17:01:29.246Z,50.40
2022-11-21T17:06:35.771Z,54.53
2022-11-21T17:11:41.528Z,48.10
2022-11-21T17:16:45.827Z,50.53
2022-11-21T17:21:53.838Z,52.20
2022-11-21T17:27:01.179Z,53.90
2022-11-21T17:32:04.955Z,50.30
2022-11-21T17:37:09.187Z,51.35
2022-11-21T17:42:14.497Z,54.60
2022-11-21T17:47:18.358Z,51.20
2022-11-21T17:52:22.264Z,53.63
2022-11-21T17:57:27.915Z,55.40
2022-11-21T18:02:31.958Z,56.75
2022-11-21T18:07:37.846Z,57.00
2022-11-21T18:12:43.910Z,56.72
2022-11-21T18:17:47.695Z,62.92
2022-11-21T18:22:52.072Z,66.82
2022-11-21T18:27:59.741Z,64.68
2022-11-21T18:33:04.645Z,68.53
2022-11-21T18:38:08.526Z,64.97
2022-11-21T18:43:13.747Z,68.82
2022-11-21T18:48:19.860Z,67.13
2022-11-21T18:53:23.643Z,73.75
2022-11-21T18:58:29.164Z,72.90
2022-11-21T19:03:37.801Z,76.93
2022-11-21T19:08:41.843Z,84.27
2022-11-21T19:13:48.904Z,83.03
2022-11-21T19:24:19.801Z,73.85
2022-11-21T19:29:24.964Z,75.20
2022-11-21T19:39:34.978Z,70.43
2022-11-21T19:44:40.483Z,67.07
2022-11-21T19:49:44.380Z,74.20
2022-11-21T19:54:49.514Z,73.88
2022-11-21T19:59:55.800Z,68.22
2022-11-21T20:04:59.578Z,68.28
2022-11-21T20:10:03.613Z,66.07
2022-11-21T20:15:13.308Z,66.07
2022-11-21T20:20:17.519Z,68.00
2022-11-21T20:25:23.479Z,65.65
2022-11-21T20:30:29.673Z,70.55
2022-11-21T20:35:33.653Z,66.95
2022-11-21T20:40:37.727Z,61.38
2022-11-21T20:46:17.024Z,43.00
2022-11-21T20:56:34.617Z,60.08
2022-11-21T21:01:40.266Z,56.55
2022-11-21T21:06:44.070Z,56.50
2022-11-21T21:11:52.927Z,56.22
2022-11-21T21:16:59.620Z,56.88
2022-11-21T21:22:04.970Z,53.70
2022-11-21T21:27:11.686Z,52.40
